aviador You're here:

KXMR Decoded Metar

CAPE CANAVERAL in FL, USA
Report Time2017-12-18 08:23:00
UTC Time2017-12-18 08:46:33
Flight Rules lifr LIFR
Wind210° at 03 kt
W.Decomp.*RWY 13: 0.3 kt HW 3.0 kt RCW
W.Rank210° ranks 30
Current wind is below 210° avg. (6.5)
Visibility1207 m
Phenomena:Mist
Clouds:N/A
Expected CloudBase > 400 ft AGL from Temp-Dew spread
CeilingNone
Temp16°C (ISA +1)
Dew Point15°C (94% RH)
QNH1023 hPa
Density Alt20 ft
Elevation10 ft
Report Wrong Elevation
Raw Report
KXMR 180823Z AUTO 21003KT 3/4SM R31/1600FT BR CLR 16/15 A3020 RMK
AO2 VIS 3/4V1 1/4 SLP230 $=

Extra information for KXMR:More info

Metar Taf Metar & Taf Last 4 Metars F.Rules Stats Wind Profile Meteogram Temp Stats Airport Information Weather charts Add Link Nearby VenuesMetar ALERT Operation Metar Decoded Social comments

AIRNAV info for KXMR